createdAt,value
2019-03-15T00:00:29.587Z,97560.47
2019-03-15T00:03:04.523Z,97549.45
2019-03-15T00:05:39.344Z,97551.88
2019-03-15T00:08:14.281Z,97549.59
2019-03-15T00:10:49.310Z,97546.36
2019-03-15T00:13:24.243Z,97554.28
2019-03-15T00:15:59.076Z,97545.95
2019-03-15T00:18:34.013Z,97545.14
2019-03-15T00:21:08.941Z,97546.33
2019-03-15T00:23:43.871Z,97549.83
2019-03-15T00:26:18.804Z,97538.57
2019-03-15T00:28:54.043Z,97538.67
2019-03-15T00:31:29.077Z,97545.17
2019-03-15T00:34:04.015Z,97542.64
2019-03-15T00:36:38.839Z,97540.00
2019-03-15T00:39:13.777Z,97535.55
2019-03-15T00:41:48.806Z,97546.11
2019-03-15T00:44:23.593Z,97553.06
2019-03-15T00:46:58.465Z,97546.84
2019-03-15T00:49:33.403Z,97547.40
2019-03-15T00:52:08.233Z,97549.06
2019-03-15T00:54:43.060Z,97539.69
2019-03-15T00:57:17.888Z,97544.97
2019-03-15T00:59:53.063Z,97549.06
2019-03-15T01:02:28.062Z,97543.65
2019-03-15T01:05:02.892Z,97545.34
2019-03-15T01:07:38.027Z,97549.06
2019-03-15T01:10:13.375Z,97551.22
2019-03-15T01:12:48.307Z,97545.45
2019-03-15T01:15:23.136Z,97547.85
2019-03-15T01:17:58.683Z,97554.20
2019-03-15T01:20:33.671Z,97559.38
2019-03-15T01:23:08.675Z,97556.98
2019-03-15T01:25:44.496Z,97555.18
2019-03-15T01:28:19.431Z,97557.96
2019-03-15T01:30:54.672Z,97561.44
2019-03-15T01:33:30.429Z,97554.35
2019-03-15T01:36:05.361Z,97566.51
2019-03-15T01:38:40.291Z,97554.25
2019-03-15T01:41:15.122Z,97557.38
2019-03-15T01:43:49.911Z,97559.91
2019-03-15T01:46:24.922Z,97566.27
2019-03-15T01:48:59.919Z,97569.87
2019-03-15T01:51:34.745Z,97564.01
2019-03-15T01:54:09.575Z,97574.33
2019-03-15T01:56:44.519Z,97568.32
2019-03-15T01:59:19.441Z,97572.88
2019-03-15T02:01:54.685Z,97576.83
2019-03-15T02:04:29.616Z,97577.21
2019-03-15T02:07:04.549Z,97579.81
2019-03-15T02:09:39.479Z,97575.65
2019-03-15T02:12:14.412Z,97575.89
2019-03-15T02:14:49.347Z,97580.93
2019-03-15T02:17:24.588Z,97584.41
2019-03-15T02:20:00.028Z,97587.53
2019-03-15T02:22:34.854Z,97595.81
2019-03-15T02:25:09.689Z,97595.22
2019-03-15T02:27:45.641Z,97599.07
2019-03-15T02:30:20.477Z,97591.11
2019-03-15T02:32:55.408Z,97602.41
2019-03-15T02:35:30.237Z,97598.66
2019-03-15T02:38:05.064Z,97610.54
2019-03-15T02:40:39.888Z,97607.20
2019-03-15T02:43:15.952Z,97609.50
2019-03-15T02:45:50.984Z,97618.73
2019-03-15T02:48:25.879Z,97621.88
2019-03-15T02:51:00.749Z,97624.27
2019-03-15T02:53:35.893Z,97619.23
2019-03-15T02:56:10.836Z,97622.80
2019-03-15T02:58:45.765Z,97626.87
2019-03-15T03:01:21.912Z,97634.41
2019-03-15T03:03:56.744Z,97643.66
2019-03-15T03:06:31.579Z,97638.99
2019-03-15T03:09:07.811Z,97653.56
2019-03-15T03:11:42.877Z,97647.69
2019-03-15T03:14:17.701Z,97661.34
2019-03-15T03:16:53.661Z,97666.63
2019-03-15T03:19:28.518Z,97663.05
2019-03-15T03:22:03.426Z,97673.03
2019-03-15T03:24:38.249Z,97676.75
2019-03-15T03:27:13.091Z,97674.80
2019-03-15T03:29:48.017Z,97685.98
2019-03-15T03:32:22.841Z,97690.05
2019-03-15T03:34:58.088Z,97686.34
2019-03-15T03:37:32.911Z,97693.48
2019-03-15T03:40:08.255Z,97705.34
2019-03-15T03:42:43.297Z,97701.25
2019-03-15T03:45:18.226Z,97704.38
2019-03-15T03:47:53.158Z,97713.37
2019-03-15T03:50:27.987Z,97716.59
2019-03-15T03:53:03.434Z,97726.06
2019-03-15T03:55:38.564Z,97729.03
2019-03-15T03:58:13.501Z,97729.17
2019-03-15T04:00:48.330Z,97729.25
2019-03-15T04:03:23.365Z,97738.97
2019-03-15T04:05:58.305Z,97749.04
2019-03-15T04:08:33.333Z,97750.95
2019-03-15T04:11:08.676Z,97760.95
2019-03-15T04:13:43.602Z,97754.60
2019-03-15T04:16:18.534Z,97822.41
2019-03-15T04:18:53.474Z,97812.59
2019-03-15T04:21:28.404Z,97813.17
2019-03-15T04:24:03.229Z,97802.70
2019-03-15T04:26:38.165Z,97820.00
2019-03-15T04:29:13.102Z,97851.52
2019-03-15T04:31:47.924Z,97846.72
2019-03-15T04:34:22.867Z,97823.54
2019-03-15T04:36:57.854Z,97824.50
2019-03-15T04:39:32.720Z,97840.76
2019-03-15T04:42:07.550Z,97837.37
2019-03-15T04:44:42.401Z,97863.94
2019-03-15T04:47:17.215Z,97841.66
2019-03-15T04:49:52.143Z,97865.83
2019-03-15T04:52:27.083Z,97849.42
2019-03-15T04:55:01.904Z,97860.45
2019-03-15T04:57:36.750Z,97857.95
2019-03-15T05:00:14.637Z,97869.77
2019-03-15T05:02:50.372Z,97861.27
2019-03-15T05:05:25.599Z,97862.88
2019-03-15T05:08:00.566Z,97877.80
2019-03-15T05:10:35.599Z,97879.47
2019-03-15T05:13:10.532Z,97888.09
2019-03-15T05:15:45.460Z,97896.11
2019-03-15T05:18:20.398Z,97901.17
2019-03-15T05:20:55.328Z,97907.29
2019-03-15T05:23:30.261Z,97921.81
2019-03-15T05:26:05.095Z,97909.35
2019-03-15T05:28:40.024Z,97904.11
2019-03-15T05:31:15.059Z,97910.23
2019-03-15T05:34:16.284Z,97906.91
2019-03-15T05:36:52.125Z,97922.83
2019-03-15T05:39:28.194Z,97911.09
2019-03-15T05:42:04.134Z,97934.61
2019-03-15T05:44:39.903Z,97924.21
2019-03-15T05:47:15.741Z,97942.09
2019-03-15T05:49:52.017Z,97949.08
2019-03-15T05:52:28.076Z,97945.12
2019-03-15T05:55:08.182Z,97953.08
2019-03-15T05:57:43.974Z,97954.62
2019-03-15T06:00:19.934Z,97961.36
2019-03-15T06:02:55.798Z,97965.58
2019-03-15T06:05:32.152Z,97969.03
2019-03-15T06:08:07.963Z,97973.51
2019-03-15T06:10:44.274Z,97976.66
2019-03-15T06:13:20.043Z,97983.41
2019-03-15T06:15:55.799Z,97988.95
2019-03-15T06:18:31.585Z,97998.61
2019-03-15T06:21:07.384Z,97992.84
2019-03-15T06:23:43.147Z,97991.70
2019-03-15T06:26:18.986Z,98000.63
2019-03-15T06:28:54.946Z,98008.31
2019-03-15T06:31:30.709Z,98007.73
2019-03-15T06:34:06.453Z,98005.08
2019-03-15T06:36:42.305Z,98011.23
2019-03-15T06:39:18.369Z,98002.84
2019-03-15T06:41:54.838Z,98018.64
2019-03-15T06:44:30.686Z,98016.98
2019-03-15T06:47:06.525Z,98023.17
2019-03-15T06:49:42.299Z,98030.16
2019-03-15T06:52:18.154Z,98037.77
2019-03-15T06:54:53.990Z,98041.17
2019-03-15T06:57:30.778Z,98039.52
2019-03-15T07:00:09.803Z,98045.80
2019-03-15T07:02:46.203Z,98046.25
2019-03-15T07:05:22.223Z,98055.90
2019-03-15T07:07:58.067Z,98059.97
2019-03-15T07:10:33.924Z,98070.45
2019-03-15T07:13:09.784Z,98063.86
2019-03-15T07:15:45.553Z,98070.41
2019-03-15T07:18:21.904Z,98075.27
2019-03-15T07:20:57.759Z,98076.20
2019-03-15T07:23:33.654Z,98086.12
2019-03-15T07:26:09.599Z,98096.14
2019-03-15T07:28:45.520Z,98079.17
2019-03-15T07:31:21.589Z,98095.41
2019-03-15T07:33:57.443Z,98097.61
2019-03-15T07:36:33.214Z,98088.47
2019-03-15T07:39:08.970Z,98083.20
2019-03-15T07:41:44.740Z,98091.84
2019-03-15T07:44:20.521Z,98102.42
2019-03-15T07:46:56.259Z,98103.94
2019-03-15T07:49:32.336Z,98102.84
2019-03-15T07:52:09.443Z,98108.73
2019-03-15T07:54:45.188Z,98114.20
2019-03-15T07:57:22.488Z,98104.73
2019-03-15T07:59:58.325Z,98098.36
2019-03-15T08:02:34.085Z,98098.37
2019-03-15T08:05:10.010Z,98096.56
2019-03-15T08:07:46.027Z,98102.74
2019-03-15T08:10:21.854Z,98092.16
2019-03-15T08:12:57.675Z,98089.89
2019-03-15T08:15:33.667Z,98095.33
2019-03-15T08:18:09.759Z,98091.84
2019-03-15T08:20:45.575Z,98101.53
2019-03-15T08:23:21.429Z,98100.45
2019-03-15T08:25:57.296Z,98103.34
2019-03-15T08:28:33.143Z,98112.70
2019-03-15T08:31:08.994Z,98119.33
2019-03-15T08:33:44.848Z,98111.84
2019-03-15T08:36:20.685Z,98127.49
2019-03-15T08:38:56.540Z,98124.95
2019-03-15T08:41:32.402Z,98133.04
2019-03-15T08:44:08.251Z,98149.78
2019-03-15T08:46:44.222Z,98131.47
2019-03-15T08:49:20.134Z,98137.70
2019-03-15T08:52:03.750Z,98116.15
2019-03-15T08:54:33.404Z,98157.34
2019-03-15T08:57:10.495Z,98152.91
2019-03-15T08:59:54.167Z,98148.73
2019-03-15T09:02:23.765Z,98156.14
2019-03-15T09:04:59.565Z,98154.80
2019-03-15T09:07:35.451Z,98146.98
2019-03-15T09:10:22.440Z,98169.05
2019-03-15T09:12:50.533Z,98154.23
2019-03-15T09:15:26.226Z,98171.48
2019-03-15T09:18:02.035Z,98163.52
2019-03-15T09:20:37.799Z,98162.44
2019-03-15T09:23:14.659Z,98160.38
2019-03-15T09:25:50.438Z,98168.59
2019-03-15T09:28:26.382Z,98171.59
2019-03-15T09:31:02.130Z,98168.34
2019-03-15T09:33:37.906Z,98160.38
2019-03-15T09:36:14.096Z,98170.02
2019-03-15T09:38:49.899Z,98160.48
2019-03-15T09:41:32.055Z,98164.47
2019-03-15T09:44:03.252Z,98164.61
2019-03-15T09:46:39.002Z,98175.33
2019-03-15T09:49:14.801Z,98175.67
2019-03-15T09:51:51.626Z,98172.56
2019-03-15T09:54:27.487Z,98168.71
2019-03-15T09:57:03.841Z,98163.05
2019-03-15T09:59:39.794Z,98165.45
2019-03-15T10:02:15.625Z,98169.42
2019-03-15T10:04:52.095Z,98173.05
2019-03-15T10:07:37.701Z,98175.10
2019-03-15T10:10:13.955Z,98173.39
2019-03-15T10:12:46.654Z,98178.59
2019-03-15T10:15:22.493Z,98174.36
2019-03-15T10:17:58.419Z,98183.89
2019-03-15T10:20:34.510Z,98176.88
2019-03-15T10:23:10.267Z,98172.06
2019-03-15T10:25:49.818Z,98172.05
2019-03-15T10:28:23.563Z,98172.43
2019-03-15T10:30:59.339Z,98167.34
2019-03-15T10:33:49.523Z,98173.14
2019-03-15T10:36:13.674Z,98167.06
2019-03-15T10:38:49.431Z,98175.86
2019-03-15T10:41:25.232Z,98179.92
2019-03-15T10:44:04.052Z,98181.38
2019-03-15T10:46:40.521Z,98186.67
2019-03-15T10:49:16.796Z,98182.45
2019-03-15T10:51:53.061Z,98182.39
2019-03-15T10:54:28.778Z,98188.03
2019-03-15T10:57:04.524Z,98210.39
2019-03-15T10:59:40.318Z,98197.24
2019-03-15T11:02:16.168Z,98197.38
2019-03-15T11:04:52.232Z,98191.80
2019-03-15T11:07:29.631Z,98185.66
2019-03-15T11:10:07.455Z,98174.42
2019-03-15T11:12:44.594Z,98180.21
2019-03-15T11:15:20.445Z,98190.36
2019-03-15T11:17:56.552Z,98192.37
2019-03-15T11:20:32.245Z,98190.20
2019-03-15T11:23:08.137Z,98189.80
2019-03-15T11:25:43.843Z,98187.84
2019-03-15T11:28:19.730Z,98218.50
2019-03-15T11:30:55.480Z,98180.59
2019-03-15T11:33:31.324Z,98181.28
2019-03-15T11:36:07.092Z,98184.17
2019-03-15T11:38:42.963Z,98180.42
2019-03-15T11:41:18.806Z,98182.67
2019-03-15T11:43:54.640Z,98192.44
2019-03-15T11:46:30.512Z,98176.40
2019-03-15T11:49:06.819Z,98175.70
2019-03-15T11:51:42.841Z,98176.48
2019-03-15T11:54:18.556Z,98185.41
2019-03-15T11:56:54.316Z,98184.29
2019-03-15T11:59:30.123Z,98192.83
2019-03-15T12:02:05.948Z,98191.33
2019-03-15T12:04:41.679Z,98179.91
2019-03-15T12:07:17.975Z,98175.38
2019-03-15T12:09:53.769Z,98171.81
2019-03-15T12:12:29.658Z,98178.84
2019-03-15T12:15:08.538Z,98176.24
2019-03-15T12:17:44.441Z,98174.45
2019-03-15T12:20:20.491Z,98178.02
2019-03-15T12:22:56.215Z,98174.70
2019-03-15T12:25:32.102Z,98176.71
2019-03-15T12:28:07.957Z,98172.16
2019-03-15T12:30:43.799Z,98163.16
2019-03-15T12:33:19.652Z,98172.74
2019-03-15T12:35:55.516Z,98180.41
2019-03-15T12:38:31.364Z,98160.72
2019-03-15T12:41:07.320Z,98164.45
2019-03-15T12:43:43.097Z,98177.92
2019-03-15T12:46:18.870Z,98158.91
2019-03-15T12:48:54.823Z,98164.54
2019-03-15T12:51:32.336Z,98164.43
2019-03-15T12:54:08.229Z,98163.97
2019-03-15T12:56:53.601Z,98160.02
2019-03-15T12:59:21.681Z,98149.20
2019-03-15T13:01:57.551Z,98168.61
2019-03-15T13:04:33.376Z,98154.77
2019-03-15T13:07:09.346Z,98163.52
2019-03-15T13:09:45.137Z,98164.67
2019-03-15T13:12:21.314Z,98146.61
2019-03-15T13:14:57.221Z,98149.22
2019-03-15T13:17:33.363Z,98153.80
2019-03-15T13:20:11.681Z,98146.44
2019-03-15T13:22:48.436Z,98140.77
2019-03-15T13:25:24.208Z,98138.01
2019-03-15T13:28:00.380Z,98146.78
2019-03-15T13:30:36.513Z,98144.27
2019-03-15T13:33:20.309Z,98141.55
2019-03-15T13:35:49.845Z,98138.17
2019-03-15T13:38:25.726Z,98122.14
2019-03-15T13:41:01.894Z,98132.08
2019-03-15T13:43:37.731Z,98126.37
2019-03-15T13:46:13.874Z,98135.61
2019-03-15T13:48:49.765Z,98135.02
2019-03-15T13:51:25.621Z,98129.68
2019-03-15T13:54:01.419Z,98129.22
2019-03-15T13:56:37.244Z,98129.68
2019-03-15T13:59:13.337Z,98115.28
2019-03-15T14:01:49.355Z,98125.16
2019-03-15T14:04:25.114Z,98124.78
2019-03-15T14:07:00.945Z,98116.92
2019-03-15T14:09:36.806Z,98122.56
2019-03-15T14:12:12.959Z,98136.65
2019-03-15T14:14:48.684Z,98131.75
2019-03-15T14:17:24.490Z,98109.49
2019-03-15T14:20:00.384Z,98137.36
2019-03-15T14:22:36.146Z,98118.01
2019-03-15T14:25:18.235Z,98113.55
2019-03-15T14:27:54.126Z,98110.63
2019-03-15T14:30:29.880Z,98104.77
2019-03-15T14:33:05.694Z,98095.56
2019-03-15T14:35:41.687Z,98083.86
2019-03-15T14:38:17.848Z,98088.05
2019-03-15T14:40:53.708Z,98086.70
2019-03-15T14:43:29.939Z,98081.66
2019-03-15T14:46:05.890Z,98073.14
2019-03-15T14:48:41.784Z,98066.13
2019-03-15T14:51:17.621Z,98069.11
2019-03-15T14:53:53.662Z,98073.22
2019-03-15T14:56:30.165Z,98066.00
2019-03-15T14:59:06.108Z,98067.50
2019-03-15T15:01:42.861Z,98072.28
2019-03-15T15:04:18.650Z,98072.05
2019-03-15T15:06:54.497Z,98067.31
2019-03-15T15:09:30.762Z,98070.86
2019-03-15T15:12:07.188Z,98070.30
2019-03-15T15:14:42.978Z,98059.74
2019-03-15T15:17:19.039Z,98054.14
2019-03-15T15:19:54.910Z,98050.39
2019-03-15T15:22:30.702Z,98050.45
2019-03-15T15:25:09.187Z,98054.19
2019-03-15T15:27:45.022Z,98050.66
2019-03-15T15:30:21.809Z,98058.59
2019-03-15T15:32:57.541Z,98052.70
2019-03-15T15:35:33.273Z,98042.95
2019-03-15T15:38:09.011Z,98047.56
2019-03-15T15:40:45.795Z,98046.94
2019-03-15T15:43:21.677Z,98043.17
2019-03-15T15:45:57.447Z,98042.06
2019-03-15T15:48:33.243Z,98039.87
2019-03-15T15:51:09.170Z,98030.44
2019-03-15T15:53:44.985Z,98023.02
2019-03-15T15:56:20.722Z,98020.73
2019-03-15T15:58:56.591Z,98016.25
2019-03-15T16:01:32.440Z,98022.19
2019-03-15T16:04:08.243Z,98021.69
2019-03-15T16:06:44.471Z,98012.04
2019-03-15T16:09:20.279Z,98013.86
2019-03-15T16:11:56.220Z,98009.78
2019-03-15T16:14:32.002Z,98015.71
2019-03-15T16:17:07.942Z,98006.42
2019-03-15T16:19:43.827Z,98002.98
2019-03-15T16:22:19.865Z,98003.65
2019-03-15T16:24:56.543Z,98012.14
2019-03-15T16:27:32.371Z,98012.45
2019-03-15T16:30:19.325Z,97988.36
2019-03-15T16:32:55.182Z,97977.28
2019-03-15T16:35:31.150Z,97970.75
2019-03-15T16:38:07.691Z,97960.30
2019-03-15T16:40:43.582Z,97952.48
2019-03-15T16:43:19.764Z,97952.19
2019-03-15T16:45:55.628Z,97947.04
2019-03-15T16:48:32.051Z,97952.63
2019-03-15T16:51:19.089Z,97964.13
2019-03-15T16:53:45.271Z,97968.98
2019-03-15T16:56:21.008Z,97967.46
2019-03-15T16:58:56.817Z,97980.02
2019-03-15T17:01:32.647Z,97967.61
2019-03-15T17:04:08.864Z,97966.78
2019-03-15T17:06:44.757Z,97959.16
2019-03-15T17:09:20.603Z,97953.73
2019-03-15T17:11:56.437Z,97955.63
2019-03-15T17:14:32.260Z,97952.86
2019-03-15T17:17:08.037Z,97939.58
2019-03-15T17:19:43.833Z,97954.53
2019-03-15T17:22:19.601Z,97950.58
2019-03-15T17:24:55.384Z,97931.28
2019-03-15T17:27:32.315Z,97937.92
2019-03-15T17:30:11.080Z,97937.69
2019-03-15T17:32:46.848Z,97932.49
2019-03-15T17:35:22.581Z,97929.49
2019-03-15T17:37:58.387Z,97933.48
2019-03-15T17:40:34.153Z,97945.27
2019-03-15T17:43:09.976Z,97938.52
2019-03-15T17:45:45.802Z,97942.13
2019-03-15T17:48:21.711Z,97944.44
2019-03-15T17:50:57.570Z,97941.30
2019-03-15T17:53:33.607Z,97952.14
2019-03-15T17:56:09.539Z,97936.58
2019-03-15T17:58:45.428Z,97930.41
2019-03-15T18:01:21.282Z,97931.51
2019-03-15T18:03:57.270Z,97922.85
2019-03-15T18:06:33.200Z,97927.07
2019-03-15T18:09:09.069Z,97929.64
2019-03-15T18:11:44.906Z,97925.05
2019-03-15T18:14:20.817Z,97921.19
2019-03-15T18:16:56.911Z,97913.45
2019-03-15T18:19:32.828Z,97909.81
2019-03-15T18:22:08.738Z,97905.48
2019-03-15T18:24:44.481Z,97909.12
2019-03-15T18:27:20.335Z,97902.38
2019-03-15T18:29:57.313Z,97903.97
2019-03-15T18:32:33.185Z,97895.86
2019-03-15T18:35:10.321Z,97887.89
2019-03-15T18:37:46.207Z,97887.55
2019-03-15T18:40:21.959Z,97886.84
2019-03-15T18:42:57.914Z,97870.68
2019-03-15T18:45:33.671Z,97857.08
2019-03-15T18:48:09.523Z,97855.30
2019-03-15T18:50:45.879Z,97833.60
2019-03-15T18:53:22.154Z,97818.02
2019-03-15T18:55:58.528Z,97818.78
2019-03-15T18:58:34.484Z,97804.91
2019-03-15T19:01:10.395Z,97801.69
2019-03-15T19:03:46.285Z,97809.20
2019-03-15T19:06:22.029Z,97805.95
2019-03-15T19:08:58.089Z,97798.02
2019-03-15T19:11:34.209Z,97792.38
2019-03-15T19:14:10.048Z,97792.38
2019-03-15T19:16:46.464Z,97792.04
2019-03-15T19:19:22.537Z,97801.32
2019-03-15T19:21:58.407Z,97793.36
2019-03-15T19:24:34.295Z,97794.95
2019-03-15T19:27:10.087Z,97800.98
2019-03-15T19:29:53.749Z,97776.96
2019-03-15T19:32:23.555Z,97777.94
2019-03-15T19:35:00.157Z,97782.03
2019-03-15T19:37:35.983Z,97775.06
2019-03-15T19:40:16.754Z,97761.31
2019-03-15T19:42:52.636Z,97770.48
2019-03-15T19:45:28.442Z,97757.67
2019-03-15T19:48:04.170Z,97766.72
2019-03-15T19:50:40.134Z,97771.27
2019-03-15T19:53:20.294Z,97771.38
2019-03-15T19:55:56.164Z,97768.31
2019-03-15T19:58:31.995Z,97756.60
2019-03-15T20:01:08.024Z,97752.73
2019-03-15T20:03:44.565Z,97767.20
2019-03-15T20:06:20.712Z,97777.77
2019-03-15T20:08:56.771Z,97796.80
2019-03-15T20:11:32.617Z,97792.70
2019-03-15T20:14:08.435Z,97785.20
2019-03-15T20:16:45.670Z,97782.47
2019-03-15T20:19:21.510Z,97778.38
2019-03-15T20:21:57.366Z,97779.63
2019-03-15T20:24:36.531Z,97772.13
2019-03-15T20:27:10.933Z,97765.50
2019-03-15T20:29:46.840Z,97761.74
2019-03-15T20:32:22.655Z,97761.13
2019-03-15T20:34:58.436Z,97767.42
2019-03-15T20:37:34.248Z,97773.34
2019-03-15T20:40:11.834Z,97757.42
2019-03-15T20:42:47.762Z,97762.12
2019-03-15T20:45:25.951Z,97765.16
2019-03-15T20:48:02.400Z,97771.30
2019-03-15T20:50:46.606Z,97785.66
2019-03-15T20:53:15.953Z,97778.09
2019-03-15T20:55:52.062Z,97761.00
2019-03-15T20:58:27.976Z,97748.83
2019-03-15T21:01:03.778Z,97727.84
2019-03-15T21:03:39.536Z,97716.89
2019-03-15T21:06:15.378Z,97716.67
2019-03-15T21:08:51.336Z,97713.45
2019-03-15T21:11:27.301Z,97714.63
2019-03-15T21:14:03.151Z,97720.88
2019-03-15T21:16:40.238Z,97709.66
2019-03-15T21:19:16.082Z,97702.19
2019-03-15T21:21:51.933Z,97705.95
2019-03-15T21:24:28.110Z,97707.34
2019-03-15T21:27:03.962Z,97686.34
2019-03-15T21:29:40.118Z,97713.09
2019-03-15T21:32:16.378Z,97728.52
2019-03-15T21:34:52.342Z,97702.14
2019-03-15T21:37:29.790Z,97742.42
2019-03-15T21:40:08.864Z,97750.62
2019-03-15T21:42:44.710Z,97761.72
2019-03-15T21:45:20.963Z,97776.84
2019-03-15T21:47:56.916Z,97768.28
2019-03-15T21:50:33.198Z,97772.03
2019-03-15T21:53:09.252Z,97756.27
2019-03-15T21:55:45.098Z,97760.37
2019-03-15T21:58:20.967Z,97774.61
2019-03-15T22:01:02.571Z,97751.58
2019-03-15T22:03:34.807Z,97756.39
2019-03-15T22:06:10.673Z,97756.12
2019-03-15T22:08:46.390Z,97729.48
2019-03-15T22:11:22.179Z,97727.89
2019-03-15T22:13:59.052Z,97746.69
2019-03-15T22:16:34.902Z,97764.68
2019-03-15T22:19:10.870Z,97748.62
2019-03-15T22:21:47.322Z,97719.20
2019-03-15T22:24:23.087Z,97718.77
2019-03-15T22:27:00.007Z,97665.17
2019-03-15T22:29:35.746Z,97660.46
2019-03-15T22:32:11.558Z,97673.80
2019-03-15T22:34:47.323Z,97702.98
2019-03-15T22:37:23.532Z,97674.19
2019-03-15T22:39:59.420Z,97671.07
2019-03-15T22:42:35.699Z,97700.50
2019-03-15T22:45:12.583Z,97684.58
2019-03-15T22:47:51.365Z,97687.73
2019-03-15T22:50:26.032Z,97719.11
2019-03-15T22:53:01.776Z,97661.98
2019-03-15T22:55:37.635Z,97677.67
2019-03-15T22:58:13.489Z,97672.41
2019-03-15T23:00:49.948Z,97671.36
2019-03-15T23:03:26.165Z,97674.72
2019-03-15T23:06:01.964Z,97684.96
2019-03-15T23:08:38.025Z,97685.01
2019-03-15T23:11:13.886Z,97689.14
2019-03-15T23:13:49.730Z,97711.19
2019-03-15T23:16:25.479Z,97721.56
2019-03-15T23:19:01.250Z,97720.74
2019-03-15T23:21:37.095Z,97728.24
2019-03-15T23:24:13.754Z,97732.22
2019-03-15T23:26:49.520Z,97727.06
2019-03-15T23:29:25.372Z,97734.88
2019-03-15T23:32:01.738Z,97735.14
2019-03-15T23:34:38.606Z,97743.09
2019-03-15T23:37:14.464Z,97748.43
2019-03-15T23:39:50.321Z,97756.73
2019-03-15T23:42:26.188Z,97765.17
2019-03-15T23:45:02.027Z,97766.61
2019-03-15T23:47:37.771Z,97769.41
2019-03-15T23:50:15.172Z,97784.70
2019-03-15T23:52:50.913Z,97792.31
2019-03-15T23:55:27.283Z,97782.42
2019-03-15T23:58:03.155Z,97790.63
